This is the latest recevied weather packets stored in our database for station/object HB9BTL-13. If no packets are shown the sender has not sent any weather packets the latest 10 day(s).
| Time | Temp. | Humidity | Pressure | Rain* | Wind** | Luminosity | Snow |
|---|---|---|---|---|---|---|---|
| 1787565955 | 22.78° C | 57% | 1018.3 hPa | - | - | - | - |
| 1787565050 | 21.67° C | 59% | 1018.5 hPa | - | - | - | - |
| 1787564144 | 21.67° C | 60% | 1018.7 hPa | - | - | - | - |
| 1787563240 | 21.67° C | 60% | 1018.8 hPa | - | - | - | - |
| 1787562334 | 21.11° C | 60% | 1018.9 hPa | - | - | - | - |
| 1787561429 | 21.11° C | 61% | 1019 hPa | - | - | - | - |
| 1787560523 | 21.11° C | 60% | 1019.1 hPa | - | - | - | - |
| 1787559618 | 21.11° C | 60% | 1019.1 hPa | - | - | - | - |
| 1787558712 | 20.56° C | 60% | 1019.1 hPa | - | - | - | - |
| 1787557807 | 20.56° C | 59% | 1019.1 hPa | - | - | - | - |
| 1787556901 | 20.56° C | 59% | 1019.4 hPa | - | - | - | - |
| 1787555996 | 19.44° C | 60% | 1019.7 hPa | - | - | - | - |
| 1787555091 | 19.44° C | 60% | 1019.9 hPa | - | - | - | - |
| 1787554185 | 18.89° C | 63% | 1020.1 hPa | - | - | - | - |
| 1787553280 | 18.33° C | 68% | 1020.1 hPa | - | - | - | - |
| 1787552374 | 18.33° C | 64% | 1020.2 hPa | - | - | - | - |
| 1787551469 | 17.22° C | 72% | 1019.9 hPa | - | - | - | - |
| 1787550563 | 17.22° C | 71% | 1020 hPa | - | - | - | - |
| 1787549659 | 17.22° C | 71% | 1019.8 hPa | - | - | - | - |
| 1787548753 | 17.22° C | 71% | 1019.7 hPa | - | - | - | - |
| 1787547848 | 17.22° C | 69% | 1019.7 hPa | - | - | - | - |
| 1787546943 | 17.78° C | 63% | 1019.5 hPa | - | - | - | - |
| 1787546037 | 18.33° C | 60% | 1019.4 hPa | - | - | - | - |
| 1787545132 | 17.78° C | 62% | 1019.6 hPa | - | - | - | - |
| 1787544226 | 18.33° C | 60% | 1019.7 hPa | - | - | - | - |
* Rain since midnight (hover to see other rain measurements)
** Current wind speed in m/s (hover to see current wind gust speed)